Time;durP1;ratioP1;P1;durP2;ratioP2;P2;SDS_P1;SDS_P2;PMS_P1;PMS_P2;Temp;Humidity;BMP_temperature;BMP_pressure;BME280_temperature;BME280_humidity;BME280_pressure;Samples;Min_cycle;Max_cycle;Signal;HPM_P1;HPM_P2
2023/12/10 00:01:20;;;;;;;24.65;13.90;;;;;;;0.87;72.72;94684.00;5091722;28;20050;-75
2023/12/10 00:03:45;;;;;;;31.17;15.18;;;;;;;0.79;73.08;94703.16;5085902;28;20028;-75
2023/12/10 00:06:11;;;;;;;27.92;15.23;;;;;;;0.78;72.98;94689.56;5088615;28;20032;-75
2023/12/10 00:08:38;;;;;;;27.23;14.80;;;;;;;0.89;72.66;94679.66;5054172;28;20028;-75
2023/12/10 00:11:04;;;;;;;25.20;14.68;;;;;;;0.86;72.56;94672.13;5071042;28;20047;-74
2023/12/10 00:13:30;;;;;;;26.38;14.23;;;;;;;0.94;72.89;94669.19;5068888;28;20024;-75
2023/12/10 00:15:55;;;;;;;26.05;14.18;;;;;;;0.88;73.19;94670.31;5089335;28;20059;-74
2023/12/10 00:18:20;;;;;;;27.60;14.18;;;;;;;0.87;72.75;94668.66;5074233;28;20036;-74
2023/12/10 00:20:46;;;;;;;25.98;14.50;;;;;;;0.67;73.63;94661.09;5091220;28;20092;-74
2023/12/10 00:23:11;;;;;;;24.60;13.93;;;;;;;0.71;73.86;94672.84;5091198;28;20051;-74
2023/12/10 00:25:43;;;;;;;26.38;13.25;;;;;;;0.44;74.23;94669.81;5091083;28;20093;-74
2023/12/10 00:28:08;;;;;;;22.23;13.02;;;;;;;0.59;73.97;94669.13;5074473;28;20038;-75
2023/12/10 00:30:34;;;;;;;23.83;13.48;;;;;;;0.61;73.22;94671.59;5073845;28;20048;-74
2023/12/10 00:33:00;;;;;;;24.58;13.98;;;;;;;0.64;73.17;94667.19;5092724;28;20036;-74
2023/12/10 00:35:25;;;;;;;28.75;15.73;;;;;;;0.57;73.64;94667.53;5111342;28;20524;-74
2023/12/10 00:37:52;;;;;;;25.25;14.13;;;;;;;0.57;74.21;94685.44;5080737;28;20139;-75
2023/12/10 00:40:17;;;;;;;28.27;14.65;;;;;;;0.52;73.90;94685.63;5073963;28;20031;-74
2023/12/10 00:42:43;;;;;;;25.90;14.43;;;;;;;0.72;73.08;94671.91;5098657;28;20061;-74
2023/12/10 00:45:09;;;;;;;24.83;12.88;;;;;;;0.49;73.83;94656.81;5094050;28;20420;-74
2023/12/10 00:47:34;;;;;;;25.23;13.70;;;;;;;0.49;74.32;94677.28;5105513;28;20123;-74
2023/12/10 00:50:00;;;;;;;25.85;13.65;;;;;;;0.67;73.11;94671.34;5091785;28;20031;-75
2023/12/10 00:52:25;;;;;;;21.88;12.55;;;;;;;0.53;74.22;94678.78;5091889;28;20035;-74
2023/12/10 00:54:51;;;;;;;26.75;13.45;;;;;;;0.62;74.02;94666.41;5090599;28;20032;-75
2023/12/10 00:57:16;;;;;;;23.77;12.63;;;;;;;0.61;73.02;94658.81;5074715;28;20032;-74
2023/12/10 00:59:41;;;;;;;25.75;14.30;;;;;;;0.30;73.96;94616.78;5090484;28;20482;-74
2023/12/10 01:02:07;;;;;;;25.00;12.75;;;;;;;0.43;73.97;94666.44;5090553;28;20394;-74
2023/12/10 01:04:32;;;;;;;24.20;12.95;;;;;;;0.47;73.95;94651.78;5090567;28;20413;-74
2023/12/10 01:06:58;;;;;;;21.70;12.73;;;;;;;0.61;73.86;94669.03;5093033;28;20088;-74
2023/12/10 01:09:23;;;;;;;22.98;12.98;;;;;;;0.75;73.17;94673.50;5076865;28;20035;-74
2023/12/10 01:11:49;;;;;;;23.25;13.32;;;;;;;0.65;73.32;94650.94;5090540;28;20607;-75
2023/12/10 01:14:14;;;;;;;27.75;13.95;;;;;;;0.71;73.34;94657.47;5073525;28;20036;-74
2023/12/10 01:16:40;;;;;;;23.10;12.60;;;;;;;0.62;73.78;94658.75;5091443;28;20468;-74
2023/12/10 01:19:06;;;;;;;25.73;12.90;;;;;;;0.69;73.35;94650.78;5074389;28;20109;-74
2023/12/10 01:21:31;;;;;;;28.05;14.07;;;;;;;0.53;73.93;94622.53;5072998;28;20549;-74
2023/12/10 01:23:58;;;;;;;23.40;12.35;;;;;;;0.58;73.64;94636.75;5098558;28;20028;-74
2023/12/10 01:26:24;;;;;;;24.88;12.73;;;;;;;0.76;73.31;94640.19;5093543;28;20046;-74
2023/12/10 01:28:49;;;;;;;23.88;12.48;;;;;;;0.51;73.69;94640.53;5092722;28;20482;-74
2023/12/10 01:31:15;;;;;;;23.10;12.48;;;;;;;0.53;73.87;94637.88;5111379;28;20578;-74
2023/12/10 01:33:40;;;;;;;24.05;12.10;;;;;;;0.60;73.97;94646.94;5092899;28;20467;-74
2023/12/10 01:36:06;;;;;;;23.83;12.45;;;;;;;0.48;74.21;94639.84;5073067;28;20024;-74
2023/12/10 01:38:32;;;;;;;25.73;13.52;;;;;;;0.58;74.13;94636.75;5091320;28;20035;-74
2023/12/10 01:40:58;;;;;;;25.20;13.07;;;;;;;0.40;73.97;94597.56;5072854;28;20482;-74
2023/12/10 01:43:23;;;;;;;25.40;13.52;;;;;;;0.65;73.40;94622.81;5091019;28;20027;-74
2023/12/10 01:45:50;;;;;;;27.73;13.10;;;;;;;0.49;73.62;94615.94;5090999;28;20051;-74
2023/12/10 01:48:15;;;;;;;24.75;12.13;;;;;;;0.51;73.85;94624.38;5093500;28;20551;-74
2023/12/10 01:50:41;;;;;;;28.63;13.75;;;;;;;0.36;74.33;94602.88;5092982;28;20027;-75
2023/12/10 01:53:08;;;;;;;23.80;12.77;;;;;;;0.36;74.27;94606.28;5076109;28;20042;-75
2023/12/10 01:55:33;;;;;;;28.85;13.85;;;;;;;0.24;74.41;94622.16;5092994;28;20508;-75
2023/12/10 01:57:59;;;;;;;24.30;13.02;;;;;;;0.40;74.70;94629.97;5110098;28;20028;-75
2023/12/10 02:00:25;;;;;;;21.05;12.30;;;;;;;0.39;74.03;94616.38;5110000;28;20023;-74
2023/12/10 02:02:50;;;;;;;19.83;10.43;;;;;;;0.34;74.58;94628.53;5088607;28;20031;-74
2023/12/10 02:05:16;;;;;;;20.20;10.88;;;;;;;0.41;73.81;94608.59;5089555;28;20016;-75
2023/12/10 02:07:44;;;;;;;20.77;10.85;;;;;;;0.47;74.18;94628.78;5089498;28;20037;-75
2023/12/10 02:10:09;;;;;;;21.48;10.75;;;;;;;0.32;74.37;94635.41;5089467;28;20055;-75
2023/12/10 02:12:35;;;;;;;19.00;10.30;;;;;;;0.37;74.67;94627.56;5090720;28;20471;-75
2023/12/10 02:15:20;;;;;;;22.50;11.65;;;;;;;0.28;74.71;94616.03;5072662;28;20032;-75
2023/12/10 02:17:46;;;;;;;20.55;10.10;;;;;;;0.37;74.47;94623.28;5089768;28;20028;-75
2023/12/10 02:20:14;;;;;;;22.10;11.13;;;;;;;0.52;73.96;94615.78;5089438;28;20024;-75
2023/12/10 02:22:52;;;;;;;21.45;11.48;;;;;;;0.54;74.11;94617.38;5072618;28;20505;-75
2023/12/10 02:25:21;;;;;;;20.50;11.23;;;;;;;0.50;74.21;94623.50;5072676;28;20093;-74
2023/12/10 02:27:47;;;;;;;17.20;9.73;;;;;;;0.60;73.63;94624.75;5089681;28;20265;-75
2023/12/10 02:30:13;;;;;;;20.10;9.93;;;;;;;0.72;73.94;94620.78;5072258;28;20512;-75
2023/12/10 02:32:39;;;;;;;21.67;10.80;;;;;;;0.58;73.51;94610.38;5089369;28;20036;-75
2023/12/10 02:35:05;;;;;;;18.90;10.43;;;;;;;0.78;73.47;94617.09;5090514;28;20020;-75
2023/12/10 02:37:31;;;;;;;21.48;10.93;;;;;;;0.74;73.69;94621.53;5072408;28;20394;-75
2023/12/10 02:39:56;;;;;;;20.33;10.90;;;;;;;0.80;73.12;94617.88;5075177;28;20035;-75
2023/12/10 02:42:22;;;;;;;19.95;10.02;;;;;;;0.69;73.29;94618.38;5093061;28;20031;-74
2023/12/10 02:44:47;;;;;;;18.40;10.50;;;;;;;0.72;73.47;94614.84;5093050;28;20378;-74
2023/12/10 02:47:13;;;;;;;20.17;10.18;;;;;;;0.64;73.26;94602.41;5094197;28;20035;-75
2023/12/10 02:49:38;;;;;;;18.58;9.65;;;;;;;0.78;73.48;94610.28;5092874;28;20028;-75
2023/12/10 02:52:04;;;;;;;17.80;10.52;;;;;;;0.77;73.52;94615.47;5093022;28;20028;-75
2023/12/10 02:54:30;;;;;;;17.83;9.98;;;;;;;0.84;73.23;94604.03;5076011;28;20543;-75
2023/12/10 02:56:55;;;;;;;18.98;10.90;;;;;;;0.77;72.75;94582.22;5108652;28;20085;-74
2023/12/10 02:59:20;;;;;;;17.40;9.82;;;;;;;0.72;73.86;94613.09;5114840;28;20040;-74
2023/12/10 03:01:46;;;;;;;16.50;8.95;;;;;;;0.81;72.95;94599.91;5114384;27;20035;-74
2023/12/10 03:04:11;;;;;;;21.67;11.40;;;;;;;0.51;73.21;94563.00;5111556;28;20485;-75
2023/12/10 03:06:37;;;;;;;17.98;10.15;;;;;;;0.80;73.73;94605.91;5113065;28;20503;-75
2023/12/10 03:09:02;;;;;;;20.23;10.60;;;;;;;0.98;73.70;94603.38;5079103;28;20036;-75
2023/12/10 03:11:28;;;;;;;20.30;10.57;;;;;;;0.99;73.02;94593.06;5114276;28;20023;-75
2023/12/10 03:13:53;;;;;;;18.77;10.35;;;;;;;1.02;72.65;94599.75;5112807;28;20520;-75
2023/12/10 03:16:18;;;;;;;17.40;9.50;;;;;;;1.02;72.88;94600.56;5112667;28;20023;-75
2023/12/10 03:18:44;;;;;;;19.73;11.18;;;;;;;1.00;72.81;94586.19;5095849;28;20023;-75
2023/12/10 03:21:09;;;;;;;16.75;9.55;;;;;;;1.05;73.09;94589.38;5112836;28;20016;-75
2023/12/10 03:23:35;;;;;;;18.83;9.85;;;;;;;1.04;72.89;94580.03;5078906;28;20043;-75
2023/12/10 03:26:00;;;;;;;17.75;10.43;;;;;;;1.03;73.28;94576.66;5112657;28;20486;-75
2023/12/10 03:28:26;;;;;;;17.63;9.80;;;;;;;1.17;72.64;94587.91;5112819;28;20414;-74
2023/12/10 03:30:51;;;;;;;19.52;10.48;;;;;;;0.94;73.63;94587.31;5112063;28;20078;-75
2023/12/10 03:33:17;;;;;;;17.70;10.15;;;;;;;0.94;73.67;94596.72;5112722;28;20481;-74
2023/12/10 03:35:42;;;;;;;18.20;10.23;;;;;;;0.84;74.23;94584.41;5112474;28;20055;-74
2023/12/10 03:38:07;;;;;;;18.40;10.30;;;;;;;0.77;74.27;94590.69;5095479;28;20071;-74
2023/12/10 03:40:33;;;;;;;19.92;11.38;;;;;;;0.64;74.52;94585.38;5100346;28;20077;-75
2023/12/10 03:42:58;;;;;;;18.30;10.73;;;;;;;0.76;74.75;94596.72;5091943;28;20125;-74
2023/12/10 03:45:24;;;;;;;23.90;12.13;;;;;;;0.57;75.10;94567.81;5093132;28;20028;-74
2023/12/10 03:47:49;;;;;;;21.73;12.23;;;;;;;0.46;74.33;94590.50;5100549;28;20036;-75
2023/12/10 03:50:15;;;;;;;20.52;11.43;;;;;;;0.54;75.29;94603.75;5057412;28;20472;-75
2023/12/10 03:52:41;;;;;;;20.77;11.45;;;;;;;0.51;75.30;94599.63;5091819;28;20040;-74
2023/12/10 03:55:07;;;;;;;21.83;11.95;;;;;;;0.71;74.68;94606.34;5091738;28;20028;-75
2023/12/10 03:57:32;;;;;;;21.08;11.73;;;;;;;0.69;74.28;94603.03;5074698;28;20038;-74
2023/12/10 03:59:58;;;;;;;20.80;12.20;;;;;;;0.67;74.41;94592.06;5091648;28;20028;-75
2023/12/10 04:02:24;;;;;;;22.63;12.77;;;;;;;0.71;74.60;94595.28;5091559;28;20039;-74
2023/12/10 04:04:49;;;;;;;22.77;12.60;;;;;;;0.62;75.28;94586.34;5074520;28;20028;-74
2023/12/10 04:07:14;;;;;;;20.38;12.40;;;;;;;0.64;75.19;94587.06;5091199;28;20033;-74
2023/12/10 04:09:40;;;;;;;22.80;13.30;;;;;;;0.50;75.77;94581.78;5092527;28;20492;-74
2023/12/10 04:12:06;;;;;;;21.23;12.25;;;;;;;0.63;75.48;94577.75;5091458;28;20028;-74
2023/12/10 04:14:31;;;;;;;22.33;11.98;;;;;;;0.66;75.11;94577.59;5078246;28;20516;-74
2023/12/10 04:16:57;;;;;;;23.25;12.40;;;;;;;0.60;75.49;94578.72;5077873;28;20032;-74
2023/12/10 04:19:22;;;;;;;24.05;12.88;;;;;;;0.40;76.25;94584.78;5111784;28;20051;-75
2023/12/10 04:21:48;;;;;;;25.45;14.50;;;;;;;0.35;76.61;94578.22;5094599;28;20019;-74
2023/12/10 04:24:15;;;;;;;23.67;13.98;;;;;;;0.41;76.46;94591.53;5094810;28;20493;-74
2023/12/10 04:26:41;;;;;;;21.42;12.43;;;;;;;0.33;76.67;94595.34;5094719;28;20027;-74
2023/12/10 04:29:06;;;;;;;23.00;13.95;;;;;;;0.09;77.76;94587.94;5094560;28;20067;-74
2023/12/10 04:31:32;;;;;;;26.75;15.90;;;;;;;0.12;77.93;94598.00;5112816;28;20096;-74
2023/12/10 04:33:57;;;;;;;23.92;14.65;;;;;;;0.27;77.68;94601.59;5111498;28;20028;-75
2023/12/10 04:36:23;;;;;;;24.98;15.32;;;;;;;0.41;77.22;94600.94;5096504;28;20024;-74
2023/12/10 04:38:49;;;;;;;22.33;13.55;;;;;;;0.45;77.17;94607.59;5074205;28;20414;-74
2023/12/10 04:41:14;;;;;;;26.13;13.38;;;;;;;0.57;76.95;94604.44;5092167;28;20460;-74
2023/12/10 04:43:39;;;;;;;23.85;14.32;;;;;;;0.47;77.17;94613.44;5093328;28;20028;-75
2023/12/10 04:46:05;;;;;;;25.60;14.57;;;;;;;0.51;76.85;94589.41;5111135;28;20027;-75
2023/12/10 04:48:30;;;;;;;29.52;17.73;;;;;;;0.49;76.39;94608.25;5094111;28;20554;-75
2023/12/10 04:50:56;;;;;;;26.67;15.75;;;;;;;0.74;76.29;94618.16;5110931;28;20032;-74
2023/12/10 04:53:21;;;;;;;25.13;16.38;;;;;;;0.69;75.98;94603.03;5112479;28;20092;-74
2023/12/10 04:55:47;;;;;;;31.13;20.30;;;;;;;0.62;75.81;94607.63;5093993;28;20058;-74
2023/12/10 04:58:13;;;;;;;29.73;18.45;;;;;;;0.74;75.83;94615.59;5110936;28;20031;-74
2023/12/10 05:00:38;;;;;;;29.38;17.27;;;;;;;0.03;76.08;94491.16;5112010;28;20045;-74
2023/12/10 05:03:04;;;;;;;27.55;17.17;;;;;;;0.83;75.53;94615.97;5110736;28;20042;-74
2023/12/10 05:05:29;;;;;;;28.88;17.77;;;;;;;0.76;75.67;94608.69;5076810;28;20473;-74
2023/12/10 05:07:54;;;;;;;27.83;17.17;;;;;;;0.51;76.22;94614.13;5093263;28;20494;-75
2023/12/10 05:10:21;;;;;;;25.35;15.82;;;;;;;0.54;76.08;94606.31;5085738;28;20043;-74
2023/12/10 05:12:47;;;;;;;23.23;15.23;;;;;;;0.51;76.31;94591.94;5072122;28;20478;-74
2023/12/10 05:15:13;;;;;;;24.30;15.13;;;;;;;0.55;75.59;94601.13;5085207;28;20039;-75
2023/12/10 05:17:39;;;;;;;25.00;14.55;;;;;;;0.63;75.67;94603.31;5071115;28;20032;-74
2023/12/10 05:20:06;;;;;;;21.38;13.30;;;;;;;0.39;75.64;94580.59;5068908;28;20024;-74
2023/12/10 05:22:31;;;;;;;20.65;12.52;;;;;;;0.65;75.23;94597.25;5085990;28;20035;-75
2023/12/10 05:24:57;;;;;;;20.58;12.25;;;;;;;0.24;75.53;94590.69;5100375;28;20024;-74
2023/12/10 05:27:22;;;;;;;22.33;13.57;;;;;;;0.39;75.96;94606.13;5068522;28;20494;-75
2023/12/10 05:29:48;;;;;;;20.60;12.80;;;;;;;0.35;75.90;94608.91;5085138;28;20052;-75
2023/12/10 05:32:13;;;;;;;22.83;12.55;;;;;;;-0.04;76.92;94613.19;5069502;28;20114;-75
2023/12/10 05:34:39;;;;;;;20.45;13.00;;;;;;;0.15;76.52;94617.47;5120085;27;20028;-75
2023/12/10 05:37:04;;;;;;;22.65;13.45;;;;;;;0.25;76.39;94620.44;5067320;28;20024;-75
2023/12/10 05:39:30;;;;;;;20.80;13.02;;;;;;;-0.03;77.11;94594.44;5087082;28;20036;-75
2023/12/10 05:41:55;;;;;;;24.77;13.90;;;;;;;-0.35;77.89;94595.03;5070528;28;20028;-75
2023/12/10 05:44:20;;;;;;;24.30;14.95;;;;;;;-0.43;79.67;94595.34;5077288;28;20032;-75
2023/12/10 05:46:46;;;;;;;25.08;14.05;;;;;;;-0.28;78.15;94579.38;5083982;28;20028;-75
2023/12/10 05:49:11;;;;;;;21.45;13.48;;;;;;;-0.28;77.85;94604.06;5071079;28;20036;-75
2023/12/10 05:51:37;;;;;;;25.05;14.63;;;;;;;-0.31;78.42;94599.09;5086577;28;20465;-75
2023/12/10 05:54:02;;;;;;;26.88;14.50;;;;;;;-0.39;78.48;94599.44;5074237;28;20040;-75
2023/12/10 05:56:28;;;;;;;25.05;14.98;;;;;;;-0.34;77.72;94605.16;5068793;28;20028;-75
2023/12/10 05:58:53;;;;;;;20.80;12.80;;;;;;;-0.35;78.05;94600.13;5092346;28;20097;-75
2023/12/10 06:01:19;;;;;;;23.75;13.77;;;;;;;-0.41;78.30;94590.19;5087418;28;20119;-75
2023/12/10 06:03:44;;;;;;;21.45;12.63;;;;;;;-0.49;77.72;94565.81;5120733;27;20044;-75
2023/12/10 06:06:10;;;;;;;19.67;12.60;;;;;;;-0.66;78.18;94558.06;5100849;28;20047;-75
2023/12/10 06:08:35;;;;;;;21.38;12.85;;;;;;;-0.58;78.99;94584.09;5066944;28;20032;-75
2023/12/10 06:11:01;;;;;;;23.15;12.68;;;;;;;-0.42;78.66;94584.22;5089542;28;20028;-75
2023/12/10 06:13:27;;;;;;;18.10;10.82;;;;;;;-0.38;78.46;94597.72;5090948;28;20474;-75
2023/12/10 06:15:54;;;;;;;20.85;12.07;;;;;;;-0.52;78.48;94575.34;5071658;28;20031;-75
2023/12/10 06:18:20;;;;;;;18.50;11.45;;;;;;;-0.24;77.93;94591.09;5092154;28;20082;-75
2023/12/10 06:20:46;;;;;;;21.60;11.55;;;;;;;-0.31;77.22;94604.19;5090450;28;20435;-75
2023/12/10 06:23:11;;;;;;;17.42;10.70;;;;;;;-0.37;77.50;94614.69;5091363;28;20482;-74
2023/12/10 06:25:37;;;;;;;21.05;11.63;;;;;;;-0.48;78.11;94605.75;5089142;28;20024;-74
2023/12/10 06:28:02;;;;;;;18.88;10.55;;;;;;;-0.33;77.75;94604.28;5079808;28;20035;-74
2023/12/10 06:30:28;;;;;;;17.67;10.10;;;;;;;-0.56;79.28;94584.84;5090193;28;20429;-71
2023/12/10 06:32:53;;;;;;;19.17;10.23;;;;;;;-0.58;78.89;94593.47;5090769;28;20032;-72
2023/12/10 06:35:19;;;;;;;16.42;9.32;;;;;;;-0.66;79.85;94588.69;5087752;28;20028;-72
2023/12/10 06:37:44;;;;;;;18.40;10.40;;;;;;;-0.62;79.42;94597.84;5089294;28;20449;-71
2023/12/10 06:40:10;;;;;;;20.65;12.00;;;;;;;-0.99;79.85;94578.19;5090346;28;20020;-72
2023/12/10 06:42:36;;;;;;;21.50;13.05;;;;;;;-0.50;79.73;94617.78;5071694;28;20261;-73
2023/12/10 06:45:03;;;;;;;24.77;15.68;;;;;;;-0.26;78.47;94620.97;5070663;28;20113;-74
2023/12/10 06:47:28;;;;;;;21.00;12.65;;;;;;;-0.30;78.31;94605.88;5073047;28;20179;-74
2023/12/10 06:49:54;;;;;;;18.45;11.23;;;;;;;-0.38;79.33;94623.25;5090383;28;20048;-74
2023/12/10 06:52:19;;;;;;;19.55;10.85;;;;;;;-0.46;79.72;94626.94;5072766;28;20111;-74
2023/12/10 06:54:45;;;;;;;19.88;11.10;;;;;;;-0.28;78.94;94620.22;5088827;28;20032;-74
2023/12/10 06:57:10;;;;;;;18.48;11.15;;;;;;;-0.31;78.96;94624.63;5070711;28;20028;-74
2023/12/10 06:59:36;;;;;;;19.65;11.77;;;;;;;-0.39;78.55;94635.19;5090929;28;20043;-74
2023/12/10 07:02:01;;;;;;;19.58;10.85;;;;;;;-0.32;78.34;94620.41;5089499;28;20082;-74
2023/12/10 07:04:27;;;;;;;21.63;12.95;;;;;;;-0.59;79.50;94620.69;5087199;28;20297;-74
2023/12/10 07:06:52;;;;;;;20.23;11.88;;;;;;;-0.29;78.51;94622.84;5070836;28;20031;-74
2023/12/10 07:09:18;;;;;;;22.55;11.85;;;;;;;-0.31;78.54;94620.34;5090549;28;20093;-73
2023/12/10 07:11:43;;;;;;;22.83;12.98;;;;;;;0.01;78.56;94653.88;5088469;28;20031;-74
2023/12/10 07:14:08;;;;;;;28.85;15.10;;;;;;;0.13;77.56;94653.31;5076528;28;20036;-74
2023/12/10 07:16:34;;;;;;;41.78;21.92;;;;;;;-0.20;78.40;94626.69;5087680;28;20052;-74
2023/12/10 07:18:59;;;;;;;37.38;22.48;;;;;;;0.01;78.65;94633.44;5056697;28;20039;-74
2023/12/10 07:21:25;;;;;;;45.88;26.08;;;;;;;0.05;78.52;94655.38;5072380;28;20031;-74
2023/12/10 07:23:50;;;;;;;42.00;24.38;;;;;;;0.11;78.60;94661.94;5089186;28;20058;-73
2023/12/10 07:26:23;;;;;;;40.03;23.42;;;;;;;0.22;78.09;94636.72;5074366;28;20055;-74
2023/12/10 07:28:48;;;;;;;32.58;19.67;;;;;;;0.50;77.28;94653.38;5063046;28;20411;-74
2023/12/10 07:31:14;;;;;;;34.78;19.75;;;;;;;0.64;77.15;94644.16;5086174;28;20117;-74
2023/12/10 07:33:39;;;;;;;38.40;20.73;;;;;;;0.61;77.06;94646.03;5093782;28;20040;-74
2023/12/10 07:36:05;;;;;;;40.00;23.02;;;;;;;0.70;76.86;94630.28;5087283;28;20020;-74
2023/12/10 07:38:31;;;;;;;37.78;21.58;;;;;;;0.79;76.42;94649.47;5073346;28;20090;-72
2023/12/10 07:40:56;;;;;;;35.28;21.27;;;;;;;0.80;76.34;94623.78;5103648;27;20918;-72
2023/12/10 07:43:22;;;;;;;42.70;24.48;;;;;;;0.54;76.55;94645.50;5088811;28;20047;-74
2023/12/10 07:45:47;;;;;;;47.25;25.27;;;;;;;0.42;76.42;94621.34;5087943;28;20078;-74
2023/12/10 07:48:13;;;;;;;43.17;24.52;;;;;;;0.64;77.03;94654.41;5072684;28;20497;-73
2023/12/10 07:50:38;;;;;;;38.85;21.95;;;;;;;1.11;75.44;94655.56;5089961;28;20509;-74
2023/12/10 07:53:04;;;;;;;39.28;22.42;;;;;;;1.33;74.98;94645.94;5070340;28;20031;-70
2023/12/10 07:55:29;;;;;;;46.25;24.92;;;;;;;1.43;73.68;94636.09;5066578;28;20077;-72
2023/12/10 07:57:55;;;;;;;42.88;24.55;;;;;;;1.42;74.44;94643.84;5087882;28;20498;-74
2023/12/10 08:00:21;;;;;;;43.08;25.90;;;;;;;1.28;73.86;94632.56;5070552;28;20093;-72
2023/12/10 08:02:46;;;;;;;40.45;24.58;;;;;;;1.11;74.56;94638.53;5087737;28;20032;-73
2023/12/10 08:05:12;;;;;;;43.08;26.40;;;;;;;0.91;75.66;94650.59;5086369;28;20097;-75
2023/12/10 08:07:37;;;;;;;39.38;23.63;;;;;;;1.30;74.59;94650.41;5088211;28;20035;-74
2023/12/10 08:10:05;;;;;;;56.20;29.90;;;;;;;1.25;74.91;94658.28;5087215;28;20021;-74
2023/12/10 08:12:30;;;;;;;41.88;23.45;;;;;;;1.45;74.14;94659.03;5075290;28;20051;-74
2023/12/10 08:14:56;;;;;;;43.83;25.05;;;;;;;1.68;72.30;94635.69;5052155;28;20422;-74
2023/12/10 08:17:21;;;;;;;41.00;24.27;;;;;;;1.68;72.92;94656.19;5070008;28;20490;-73
2023/12/10 08:19:47;;;;;;;43.80;24.63;;;;;;;1.82;72.24;94636.72;5087337;28;20410;-75
2023/12/10 08:22:13;;;;;;;41.95;23.60;;;;;;;1.98;71.09;94642.72;5106499;28;20024;-74
2023/12/10 08:24:39;;;;;;;39.85;22.73;;;;;;;1.85;71.52;94616.06;5088975;28;20035;-73
2023/12/10 08:27:05;;;;;;;39.35;22.95;;;;;;;2.08;71.14;94633.63;5085788;28;20119;-73
2023/12/10 08:29:30;;;;;;;40.83;23.35;;;;;;;2.30;70.58;94647.88;5073400;28;20038;-74
2023/12/10 08:31:56;;;;;;;38.08;21.85;;;;;;;2.19;70.78;94628.75;5078244;28;20048;-74
2023/12/10 08:34:21;;;;;;;36.75;20.92;;;;;;;2.16;70.64;94646.03;5054214;28;20514;-74
2023/12/10 08:36:47;;;;;;;31.38;19.00;;;;;;;1.95;71.80;94635.16;5068717;28;20052;-72
2023/12/10 08:39:13;;;;;;;29.38;18.00;;;;;;;1.90;72.23;94639.72;5104250;28;20076;-73
2023/12/10 08:41:38;;;;;;;29.48;18.55;;;;;;;1.71;72.35;94639.84;5071381;28;20047;-75
2023/12/10 08:44:04;;;;;;;26.48;15.23;;;;;;;1.57;73.02;94630.28;5086536;28;20067;-73
2023/12/10 08:46:29;;;;;;;23.80;13.77;;;;;;;1.60;72.78;94625.00;5087209;28;20020;-74
2023/12/10 08:48:55;;;;;;;26.02;14.93;;;;;;;1.62;73.07;94630.88;5089759;28;20031;-74
2023/12/10 08:51:21;;;;;;;25.63;14.63;;;;;;;1.80;72.67;94618.84;5088230;28;20028;-74
2023/12/10 08:53:46;;;;;;;22.45;13.77;;;;;;;1.85;72.62;94618.63;5051338;28;20055;-73
2023/12/10 08:56:12;;;;;;;20.20;11.98;;;;;;;1.82;72.12;94600.88;5086249;28;20028;-73
2023/12/10 08:58:37;;;;;;;21.17;12.50;;;;;;;1.79;72.35;94592.41;5068297;28;20605;-73
2023/12/10 09:01:05;;;;;;;20.98;13.02;;;;;;;1.51;74.17;94595.56;5104087;27;20031;-73
2023/12/10 09:03:30;;;;;;;24.00;14.98;;;;;;;1.55;74.12;94578.31;5087820;28;20478;-73
2023/12/10 09:05:58;;;;;;;24.02;14.55;;;;;;;2.01;71.55;94591.31;5088361;28;20025;-73
2023/12/10 09:08:26;;;;;;;28.52;16.30;;;;;;;2.14;71.87;94584.59;5068776;28;20051;-73
2023/12/10 09:10:51;;;;;;;24.50;14.77;;;;;;;2.51;71.87;94590.31;5086048;28;20024;-73
2023/12/10 09:13:17;;;;;;;26.75;15.52;;;;;;;2.63;69.85;94589.63;5125987;27;20116;-73
2023/12/10 09:15:43;;;;;;;28.77;17.40;;;;;;;2.28;70.90;94583.03;5087677;28;20031;-73
2023/12/10 09:18:09;;;;;;;30.40;17.13;;;;;;;2.55;70.68;94584.09;5089065;28;20488;-74
2023/12/10 09:20:34;;;;;;;28.88;16.50;;;;;;;2.52;70.77;94583.44;5092748;28;20034;-73
2023/12/10 09:23:00;;;;;;;34.85;19.02;;;;;;;2.78;68.74;94556.34;5086733;28;20032;-71
2023/12/10 09:25:25;;;;;;;38.33;21.65;;;;;;;3.11;68.23;94582.66;5086315;28;20502;-72
2023/12/10 09:27:50;;;;;;;34.10;20.55;;;;;;;2.86;69.15;94557.56;5086026;28;20405;-74
2023/12/10 09:30:16;;;;;;;35.53;18.63;;;;;;;3.02;69.12;94565.22;5068739;28;20446;-74
2023/12/10 09:32:42;;;;;;;26.08;15.75;;;;;;;2.84;69.20;94577.38;5086418;28;20129;-74
2023/12/10 09:35:07;;;;;;;32.17;18.55;;;;;;;2.69;70.20;94550.00;5088232;28;20493;-72
2023/12/10 09:37:33;;;;;;;28.63;18.17;;;;;;;2.81;70.24;94569.00;5105411;27;20035;-73
2023/12/10 09:39:58;;;;;;;29.40;18.67;;;;;;;3.17;69.40;94575.50;5073648;28;20035;-74
2023/12/10 09:42:24;;;;;;;29.23;18.10;;;;;;;3.09;69.22;94553.69;5105893;28;20088;-74
2023/12/10 09:44:50;;;;;;;28.17;16.65;;;;;;;3.04;69.24;94560.00;5066869;28;20181;-73
2023/12/10 09:47:15;;;;;;;30.08;18.65;;;;;;;3.20;68.97;94544.53;5082827;28;20725;-74
2023/12/10 09:49:40;;;;;;;30.35;18.02;;;;;;;3.32;68.25;94518.16;5069635;28;20513;-74
2023/12/10 09:52:07;;;;;;;29.05;18.15;;;;;;;3.83;67.74;94562.19;5102673;28;20032;-74
2023/12/10 09:54:32;;;;;;;27.30;16.20;;;;;;;4.11;67.00;94550.22;5087041;28;20036;-74
2023/12/10 09:56:58;;;;;;;27.95;15.68;;;;;;;3.79;66.74;94555.59;5085507;28;20777;-74
2023/12/10 09:59:23;;;;;;;34.83;18.05;;;;;;;3.65;66.98;94555.56;5053045;28;20048;-75
2023/12/10 10:01:53;;;;;;;33.85;22.00;;;;;;;3.48;67.33;94531.75;5086675;28;20031;-75
2023/12/10 10:04:18;;;;;;;30.13;18.73;;;;;;;3.55;67.68;94548.41;5090843;28;20041;-74
2023/12/10 10:06:44;;;;;;;25.70;15.32;;;;;;;4.09;66.57;94544.34;5068447;28;20482;-74
2023/12/10 10:09:10;;;;;;;23.85;15.55;;;;;;;4.10;66.44;94528.00;5068891;28;20036;-74
2023/12/10 10:11:37;;;;;;;26.02;15.23;;;;;;;3.90;66.69;94542.91;5069705;28;20032;-74
2023/12/10 10:14:02;;;;;;;23.65;13.40;;;;;;;4.10;65.85;94528.00;5069289;28;20477;-74
2023/12/10 10:16:29;;;;;;;21.27;12.40;;;;;;;4.07;65.95;94535.88;5086231;28;20077;-74
2023/12/10 10:18:55;;;;;;;20.70;13.23;;;;;;;4.15;65.09;94536.25;5068016;28;20035;-74
2023/12/10 10:21:20;;;;;;;20.52;13.52;;;;;;;3.99;65.97;94532.06;5086451;28;20028;-74
2023/12/10 10:23:46;;;;;;;22.50;14.00;;;;;;;3.77;66.68;94531.72;5070129;28;20032;-74
2023/12/10 10:26:11;;;;;;;23.08;13.43;;;;;;;3.72;66.98;94541.44;5086308;28;20107;-75
2023/12/10 10:28:37;;;;;;;22.13;13.60;;;;;;;3.57;66.88;94531.19;5086484;28;20036;-75
2023/12/10 10:31:02;;;;;;;24.50;15.32;;;;;;;3.87;66.91;94542.25;5090533;28;20146;-75
2023/12/10 10:33:28;;;;;;;20.02;12.38;;;;;;;4.14;65.75;94550.03;5090260;28;20040;-75
2023/12/10 10:35:53;;;;;;;23.88;14.77;;;;;;;4.02;66.40;94551.63;5085323;28;20035;-75
2023/12/10 10:38:22;;;;;;;26.38;15.95;;;;;;;3.60;67.13;94527.59;5084817;28;20032;-74
2023/12/10 10:40:48;;;;;;;24.00;14.68;;;;;;;3.95;66.18;94538.28;5067343;28;20044;-75
2023/12/10 10:43:13;;;;;;;25.77;15.48;;;;;;;3.70;66.69;94520.97;5085864;28;20520;-74
2023/12/10 10:45:39;;;;;;;27.85;15.85;;;;;;;3.73;67.00;94518.25;5051444;28;20076;-74
2023/12/10 10:48:05;;;;;;;24.55;15.35;;;;;;;3.32;67.58;94469.38;5085780;28;20420;-75
2023/12/10 10:50:31;;;;;;;24.13;15.68;;;;;;;3.79;67.17;94524.75;5086169;28;20036;-74
2023/12/10 10:52:57;;;;;;;23.20;14.43;;;;;;;3.53;67.73;94518.59;5068694;28;20047;-75
2023/12/10 10:55:22;;;;;;;22.08;13.90;;;;;;;3.93;66.93;94526.50;5084223;28;20024;-74
2023/12/10 10:57:48;;;;;;;24.23;14.70;;;;;;;3.99;66.87;94532.06;5050054;28;20047;-75
2023/12/10 11:00:16;;;;;;;21.80;13.80;;;;;;;4.27;65.74;94514.94;5102791;27;20059;-74
2023/12/10 11:02:42;;;;;;;24.23;14.93;;;;;;;3.94;66.54;94513.53;5090060;28;20143;-74
2023/12/10 11:05:07;;;;;;;23.58;15.05;;;;;;;3.98;66.29;94504.72;5089076;28;20024;-74
2023/12/10 11:07:33;;;;;;;23.75;14.20;;;;;;;3.74;66.86;94495.94;5070045;28;20040;-74
2023/12/10 11:09:59;;;;;;;26.30;15.45;;;;;;;3.84;67.17;94502.16;5089153;28;20044;-74
2023/12/10 11:12:40;;;;;;;24.52;13.75;;;;;;;3.96;66.28;94493.69;5089137;28;20030;-74
2023/12/10 11:15:21;;;;;;;24.10;14.57;;;;;;;3.81;66.24;94479.22;5089269;28;20035;-75
2023/12/10 11:17:53;;;;;;;25.58;14.45;;;;;;;3.95;66.28;94491.22;5056533;28;20032;-74